Time,TemperatureF,DewpointF,PressureIn,WindDirection,WindDirectionDegrees,WindSpeedMPH,WindSpeedGustMPH,Humidity,HourlyPrecipIn,Conditions,Clouds,dailyrainin,SoftwareType,DateUTC
2013-08-23 00:02:00,74.1,69.6,30.00,North,-999,-999.0,-999.0,86,-99.99,,,-99.99,meteohub,2013-08-23 05:02:00,
2013-08-23 00:07:00,74.1,69.6,30.00,North,-999,-999.0,-999.0,86,-99.99,,,-99.99,meteohub,2013-08-23 05:07:00,
2013-08-23 00:12:00,73.9,69.4,30.00,North,-999,-999.0,-999.0,86,-99.99,,,-99.99,meteohub,2013-08-23 05:12:00,
2013-08-23 00:17:00,73.9,69.4,30.01,North,-999,-999.0,-999.0,86,-99.99,,,-99.99,meteohub,2013-08-23 05:17:00,
2013-08-23 00:22:00,73.9,69.8,30.00,North,-999,-999.0,-999.0,87,-99.99,,,-99.99,meteohub,2013-08-23 05:22:00,
2013-08-23 00:27:00,73.9,69.8,30.00,North,-999,-999.0,-999.0,87,-99.99,,,-99.99,meteohub,2013-08-23 05:27:00,
2013-08-23 00:32:00,73.4,69.3,30.00,North,-999,-999.0,-999.0,87,-99.99,,,-99.99,meteohub,2013-08-23 05:32:00,
2013-08-23 00:37:00,73.4,69.6,30.00,North,-999,-999.0,-999.0,88,-99.99,,,-99.99,meteohub,2013-08-23 05:37:00,
2013-08-23 00:42:00,73.4,69.6,30.00,North,-999,-999.0,-999.0,88,-99.99,,,-99.99,meteohub,2013-08-23 05:42:00,
2013-08-23 00:47:00,73.4,69.6,30.00,North,-999,-999.0,-999.0,88,-99.99,,,-99.99,meteohub,2013-08-23 05:47:00,
2013-08-23 00:52:00,73.2,69.4,30.00,North,-999,-999.0,-999.0,88,-99.99,,,-99.99,meteohub,2013-08-23 05:52:00,
2013-08-23 00:57:00,73.0,69.6,30.01,North,-999,-999.0,-999.0,89,-99.99,,,-99.99,meteohub,2013-08-23 05:57:00,
2013-08-23 01:02:00,73.0,69.6,30.01,North,-999,-999.0,-999.0,89,-99.99,,,-99.99,meteohub,2013-08-23 06:02:00,
2013-08-23 01:07:00,72.9,69.4,30.00,North,-999,-999.0,-999.0,89,-99.99,,,-99.99,meteohub,2013-08-23 06:07:00,
2013-08-23 01:12:00,72.9,69.8,30.01,North,-999,-999.0,-999.0,90,-99.99,,,-99.99,meteohub,2013-08-23 06:12:00,
2013-08-23 01:17:00,72.9,70.2,30.01,North,-999,-999.0,-999.0,91,-99.99,,,-99.99,meteohub,2013-08-23 06:17:00,
2013-08-23 01:22:00,73.0,70.3,30.01,North,-999,-999.0,-999.0,91,-99.99,,,-99.99,meteohub,2013-08-23 06:22:00,
2013-08-23 01:27:00,73.0,70.3,30.00,North,-999,-999.0,-999.0,91,-99.99,,,-99.99,meteohub,2013-08-23 06:27:00,
2013-08-23 01:32:00,73.2,70.5,30.01,North,-999,-999.0,-999.0,91,-99.99,,,-99.99,meteohub,2013-08-23 06:32:00,
2013-08-23 01:37:00,73.2,70.5,30.01,North,-999,-999.0,-999.0,91,-99.99,,,-99.99,meteohub,2013-08-23 06:37:00,
2013-08-23 01:42:00,73.2,70.2,30.00,North,-999,-999.0,-999.0,90,-99.99,,,-99.99,meteohub,2013-08-23 06:42:00,
2013-08-23 01:47:00,72.9,69.8,30.00,North,-999,-999.0,-999.0,90,-99.99,,,-99.99,meteohub,2013-08-23 06:47:00,
2013-08-23 01:52:00,72.7,70.0,30.00,North,-999,-999.0,-999.0,91,-99.99,,,-99.99,meteohub,2013-08-23 06:52:00,
2013-08-23 01:57:00,72.5,69.8,30.00,North,-999,-999.0,-999.0,91,-99.99,,,-99.99,meteohub,2013-08-23 06:57:00,
2013-08-23 02:02:00,72.3,69.8,30.00,North,-999,-999.0,-999.0,92,-99.99,,,-99.99,meteohub,2013-08-23 07:02:00,
2013-08-23 02:07:00,72.3,69.8,30.00,North,-999,-999.0,-999.0,92,-99.99,,,-99.99,meteohub,2013-08-23 07:07:00,
2013-08-23 02:12:00,72.1,69.6,30.00,North,-999,-999.0,-999.0,92,-99.99,,,-99.99,meteohub,2013-08-23 07:12:00,
2013-08-23 02:17:00,72.0,69.8,30.01,North,-999,-999.0,-999.0,93,-99.99,,,-99.99,meteohub,2013-08-23 07:17:00,
2013-08-23 02:22:00,72.0,69.8,30.01,North,-999,-999.0,-999.0,93,-99.99,,,-99.99,meteohub,2013-08-23 07:22:00,
2013-08-23 02:27:00,71.8,69.6,30.01,North,-999,-999.0,-999.0,93,-99.99,,,-99.99,meteohub,2013-08-23 07:27:00,
2013-08-23 02:32:00,72.0,70.2,30.01,North,-999,-999.0,-999.0,94,-99.99,,,-99.99,meteohub,2013-08-23 07:32:00,
2013-08-23 02:37:00,71.8,70.0,30.01,North,-999,-999.0,-999.0,94,-99.99,,,-99.99,meteohub,2013-08-23 07:37:00,
2013-08-23 02:42:00,71.8,70.3,30.01,North,-999,-999.0,-999.0,95,-99.99,,,-99.99,meteohub,2013-08-23 07:42:00,
2013-08-23 02:47:00,71.8,70.3,30.01,North,-999,-999.0,-999.0,95,-99.99,,,-99.99,meteohub,2013-08-23 07:47:00,
2013-08-23 02:52:00,71.8,70.3,30.01,North,-999,-999.0,-999.0,95,-99.99,,,-99.99,meteohub,2013-08-23 07:52:00,
2013-08-23 02:57:00,71.6,70.2,30.01,North,-999,-999.0,-999.0,95,-99.99,,,-99.99,meteohub,2013-08-23 07:57:00,
2013-08-23 03:02:00,71.8,70.5,30.01,North,-999,-999.0,-999.0,96,-99.99,,,-99.99,meteohub,2013-08-23 08:02:00,
2013-08-23 03:07:00,71.8,70.5,30.01,North,-999,-999.0,-999.0,96,-99.99,,,-99.99,meteohub,2013-08-23 08:07:00,
2013-08-23 03:12:00,71.6,70.3,30.01,North,-999,-999.0,-999.0,96,-99.99,,,-99.99,meteohub,2013-08-23 08:12:00,
2013-08-23 03:17:00,71.8,70.5,30.01,North,-999,-999.0,-999.0,96,-99.99,,,-99.99,meteohub,2013-08-23 08:17:00,
2013-08-23 03:22:00,71.6,70.3,30.01,North,-999,-999.0,-999.0,96,-99.99,,,-99.99,meteohub,2013-08-23 08:22:00,
2013-08-23 03:27:00,71.6,70.3,30.01,North,-999,-999.0,-999.0,96,-99.99,,,-99.99,meteohub,2013-08-23 08:27:00,
2013-08-23 03:32:00,71.4,70.2,30.02,North,-999,-999.0,-999.0,96,-99.99,,,-99.99,meteohub,2013-08-23 08:32:00,
2013-08-23 03:37:00,71.4,70.5,30.02,North,-999,-999.0,-999.0,97,-99.99,,,-99.99,meteohub,2013-08-23 08:37:00,
2013-08-23 03:42:00,71.4,70.5,30.02,North,-999,-999.0,-999.0,97,-99.99,,,-99.99,meteohub,2013-08-23 08:42:00,
2013-08-23 03:47:00,71.6,70.7,30.02,North,-999,-999.0,-999.0,97,-99.99,,,-99.99,meteohub,2013-08-23 08:47:00,
2013-08-23 03:52:00,71.4,70.5,30.01,North,-999,-999.0,-999.0,97,-99.99,,,-99.99,meteohub,2013-08-23 08:52:00,
2013-08-23 03:57:00,71.6,70.7,30.02,North,-999,-999.0,-999.0,97,-99.99,,,-99.99,meteohub,2013-08-23 08:57:00,
2013-08-23 04:02:00,71.6,70.7,30.02,North,-999,-999.0,-999.0,97,-99.99,,,-99.99,meteohub,2013-08-23 09:02:00,
2013-08-23 04:07:00,71.8,71.2,30.02,North,-999,-999.0,-999.0,98,-99.99,,,-99.99,meteohub,2013-08-23 09:07:00,
2013-08-23 04:12:00,71.8,70.9,30.01,North,-999,-999.0,-999.0,97,-99.99,,,-99.99,meteohub,2013-08-23 09:12:00,
2013-08-23 04:17:00,71.6,70.7,30.01,North,-999,-999.0,-999.0,97,-99.99,,,-99.99,meteohub,2013-08-23 09:17:00,
2013-08-23 04:22:00,71.6,70.7,30.01,North,-999,-999.0,-999.0,97,-99.99,,,-99.99,meteohub,2013-08-23 09:22:00,
2013-08-23 04:27:00,71.6,70.7,30.01,North,-999,-999.0,-999.0,97,-99.99,,,-99.99,meteohub,2013-08-23 09:27:00,
2013-08-23 04:32:00,71.4,70.5,30.00,North,-999,-999.0,-999.0,97,-99.99,,,-99.99,meteohub,2013-08-23 09:32:00,
2013-08-23 04:37:00,71.2,70.3,30.00,North,-999,-999.0,-999.0,97,-99.99,,,-99.99,meteohub,2013-08-23 09:37:00,
2013-08-23 04:42:00,71.2,70.3,30.01,North,-999,-999.0,-999.0,97,-99.99,,,-99.99,meteohub,2013-08-23 09:42:00,
2013-08-23 04:47:00,71.2,70.3,30.01,North,-999,-999.0,-999.0,97,-99.99,,,-99.99,meteohub,2013-08-23 09:47:00,
2013-08-23 04:52:00,71.2,70.3,30.00,North,-999,-999.0,-999.0,97,-99.99,,,-99.99,meteohub,2013-08-23 09:52:00,
2013-08-23 04:57:00,71.2,70.3,30.01,North,-999,-999.0,-999.0,97,-99.99,,,-99.99,meteohub,2013-08-23 09:57:00,
2013-08-23 05:02:00,71.2,70.3,30.01,North,-999,-999.0,-999.0,97,-99.99,,,-99.99,meteohub,2013-08-23 10:02:00,
2013-08-23 05:07:00,71.1,70.2,30.01,North,-999,-999.0,-999.0,97,-99.99,,,-99.99,meteohub,2013-08-23 10:07:00,
2013-08-23 05:12:00,71.2,70.3,30.01,North,-999,-999.0,-999.0,97,-99.99,,,-99.99,meteohub,2013-08-23 10:12:00,
2013-08-23 05:17:00,71.2,70.3,30.00,North,-999,-999.0,-999.0,97,-99.99,,,-99.99,meteohub,2013-08-23 10:17:00,
2013-08-23 05:22:00,71.1,70.2,30.01,North,-999,-999.0,-999.0,97,-99.99,,,-99.99,meteohub,2013-08-23 10:22:00,
2013-08-23 05:27:00,71.1,70.2,30.01,North,-999,-999.0,-999.0,97,-99.99,,,-99.99,meteohub,2013-08-23 10:27:00,
2013-08-23 05:32:00,71.1,70.2,30.01,North,-999,-999.0,-999.0,97,-99.99,,,-99.99,meteohub,2013-08-23 10:32:00,
2013-08-23 05:37:00,71.2,70.3,30.01,North,-999,-999.0,-999.0,97,-99.99,,,-99.99,meteohub,2013-08-23 10:37:00,
2013-08-23 05:42:00,71.2,70.3,30.02,North,-999,-999.0,-999.0,97,-99.99,,,-99.99,meteohub,2013-08-23 10:42:00,
2013-08-23 05:47:00,71.2,70.3,30.01,North,-999,-999.0,-999.0,97,-99.99,,,-99.99,meteohub,2013-08-23 10:47:00,
2013-08-23 05:52:00,71.2,70.3,30.01,North,-999,-999.0,-999.0,97,-99.99,,,-99.99,meteohub,2013-08-23 10:52:00,
2013-08-23 05:57:00,71.2,70.0,30.02,North,-999,-999.0,-999.0,96,-99.99,,,-99.99,meteohub,2013-08-23 10:57:00,
2013-08-23 06:02:00,71.2,70.0,30.01,North,-999,-999.0,-999.0,96,-99.99,,,-99.99,meteohub,2013-08-23 11:02:00,
2013-08-23 06:07:00,71.2,70.0,30.02,North,-999,-999.0,-999.0,96,-99.99,,,-99.99,meteohub,2013-08-23 11:07:00,
2013-08-23 06:12:00,71.2,70.0,30.02,North,-999,-999.0,-999.0,96,-99.99,,,-99.99,meteohub,2013-08-23 11:12:00,
2013-08-23 06:17:00,71.2,70.0,30.02,North,-999,-999.0,-999.0,96,-99.99,,,-99.99,meteohub,2013-08-23 11:17:00,
2013-08-23 06:22:00,71.1,69.8,30.02,North,-999,-999.0,-999.0,96,-99.99,,,-99.99,meteohub,2013-08-23 11:22:00,
2013-08-23 06:27:00,71.1,69.8,30.02,North,-999,-999.0,-999.0,96,-99.99,,,-99.99,meteohub,2013-08-23 11:27:00,
2013-08-23 06:32:00,70.7,69.4,30.02,North,-999,-999.0,-999.0,96,-99.99,,,-99.99,meteohub,2013-08-23 11:32:00,
2013-08-23 06:37:00,70.7,69.4,30.03,North,-999,-999.0,-999.0,96,-99.99,,,-99.99,meteohub,2013-08-23 11:37:00,
2013-08-23 06:42:00,70.7,69.8,30.03,North,-999,-999.0,-999.0,97,-99.99,,,-99.99,meteohub,2013-08-23 11:42:00,
2013-08-23 06:47:00,70.7,69.8,30.02,North,-999,-999.0,-999.0,97,-99.99,,,-99.99,meteohub,2013-08-23 11:47:00,
2013-08-23 06:52:00,70.7,69.8,30.02,North,-999,-999.0,-999.0,97,-99.99,,,-99.99,meteohub,2013-08-23 11:52:00,
2013-08-23 06:57:00,70.9,70.0,30.02,North,-999,-999.0,-999.0,97,-99.99,,,-99.99,meteohub,2013-08-23 11:57:00,
2013-08-23 07:02:00,71.1,70.2,30.03,North,-999,-999.0,-999.0,97,-99.99,,,-99.99,meteohub,2013-08-23 12:02:00,
2013-08-23 07:07:00,71.4,70.5,30.03,North,-999,-999.0,-999.0,97,-99.99,,,-99.99,meteohub,2013-08-23 12:07:00,
2013-08-23 07:12:00,72.1,71.2,30.02,North,-999,-999.0,-999.0,97,-99.99,,,-99.99,meteohub,2013-08-23 12:12:00,
2013-08-23 07:17:00,72.7,71.4,30.03,North,-999,-999.0,-999.0,96,-99.99,,,-99.99,meteohub,2013-08-23 12:17:00,
2013-08-23 07:22:00,73.8,72.3,30.03,North,-999,-999.0,-999.0,95,-99.99,,,-99.99,meteohub,2013-08-23 12:22:00,
2013-08-23 07:27:00,73.9,72.1,30.03,North,-999,-999.0,-999.0,94,-99.99,,,-99.99,meteohub,2013-08-23 12:27:00,
2013-08-23 07:32:00,75.2,71.8,30.02,North,-999,-999.0,-999.0,89,-99.99,,,-99.99,meteohub,2013-08-23 12:32:00,
2013-08-23 07:37:00,75.4,72.0,30.03,North,-999,-999.0,-999.0,89,-99.99,,,-99.99,meteohub,2013-08-23 12:37:00,
2013-08-23 07:42:00,75.6,71.4,30.03,North,-999,-999.0,-999.0,87,-99.99,,,-99.99,meteohub,2013-08-23 12:42:00,
2013-08-23 07:47:00,75.9,71.4,30.03,North,-999,-999.0,-999.0,86,-99.99,,,-99.99,meteohub,2013-08-23 12:47:00,
2013-08-23 07:52:00,76.8,72.3,30.03,North,-999,-999.0,-999.0,86,-99.99,,,-99.99,meteohub,2013-08-23 12:52:00,
2013-08-23 07:57:00,77.5,72.3,30.03,North,-999,-999.0,-999.0,84,-99.99,,,-99.99,meteohub,2013-08-23 12:57:00,
2013-08-23 08:02:00,77.4,71.8,30.04,North,-999,-999.0,-999.0,83,-99.99,,,-99.99,meteohub,2013-08-23 13:02:00,
2013-08-23 08:07:00,77.7,71.8,30.04,North,-999,-999.0,-999.0,82,-99.99,,,-99.99,meteohub,2013-08-23 13:07:00,
2013-08-23 08:12:00,77.9,72.0,30.04,North,-999,-999.0,-999.0,82,-99.99,,,-99.99,meteohub,2013-08-23 13:12:00,
2013-08-23 08:17:00,79.0,72.7,30.04,North,-999,-999.0,-999.0,81,-99.99,,,-99.99,meteohub,2013-08-23 13:17:00,
2013-08-23 08:22:00,79.3,72.3,30.04,North,-999,-999.0,-999.0,79,-99.99,,,-99.99,meteohub,2013-08-23 13:22:00,
2013-08-23 08:27:00,79.3,72.0,30.04,North,-999,-999.0,-999.0,78,-99.99,,,-99.99,meteohub,2013-08-23 13:27:00,
2013-08-23 08:32:00,79.3,71.4,30.04,North,-999,-999.0,-999.0,77,-99.99,,,-99.99,meteohub,2013-08-23 13:32:00,
2013-08-23 08:37:00,79.2,71.2,30.04,North,-999,-999.0,-999.0,77,-99.99,,,-99.99,meteohub,2013-08-23 13:37:00,
2013-08-23 08:42:00,79.7,72.1,30.04,North,-999,-999.0,-999.0,78,-99.99,,,-99.99,meteohub,2013-08-23 13:42:00,
2013-08-23 08:47:00,80.1,72.1,30.04,North,-999,-999.0,-999.0,77,-99.99,,,-99.99,meteohub,2013-08-23 13:47:00,
2013-08-23 08:52:00,80.1,71.4,30.04,North,-999,-999.0,-999.0,75,-99.99,,,-99.99,meteohub,2013-08-23 13:52:00,
2013-08-23 08:57:00,80.4,71.4,30.04,North,-999,-999.0,-999.0,74,-99.99,,,-99.99,meteohub,2013-08-23 13:57:00,
2013-08-23 09:02:00,81.1,71.2,30.04,North,-999,-999.0,-999.0,72,-99.99,,,-99.99,meteohub,2013-08-23 14:02:00,
2013-08-23 09:07:00,81.7,71.4,30.04,North,-999,-999.0,-999.0,71,-99.99,,,-99.99,meteohub,2013-08-23 14:07:00,
2013-08-23 09:12:00,82.0,71.8,30.04,North,-999,-999.0,-999.0,71,-99.99,,,-99.99,meteohub,2013-08-23 14:12:00,
2013-08-23 09:17:00,82.4,71.2,30.04,North,-999,-999.0,-999.0,69,-99.99,,,-99.99,meteohub,2013-08-23 14:17:00,
2013-08-23 09:22:00,83.3,71.6,30.04,North,-999,-999.0,-999.0,68,-99.99,,,-99.99,meteohub,2013-08-23 14:22:00,
2013-08-23 09:27:00,83.7,71.6,30.04,North,-999,-999.0,-999.0,67,-99.99,,,-99.99,meteohub,2013-08-23 14:27:00,
2013-08-23 09:32:00,84.7,71.2,30.04,North,-999,-999.0,-999.0,64,-99.99,,,-99.99,meteohub,2013-08-23 14:32:00,
2013-08-23 09:37:00,85.8,70.9,30.04,North,-999,-999.0,-999.0,61,-99.99,,,-99.99,meteohub,2013-08-23 14:37:00,
2013-08-23 09:42:00,87.4,71.4,30.04,North,-999,-999.0,-999.0,59,-99.99,,,-99.99,meteohub,2013-08-23 14:42:00,
2013-08-23 09:47:00,88.7,68.7,30.04,North,-999,-999.0,-999.0,52,-99.99,,,-99.99,meteohub,2013-08-23 14:47:00,
2013-08-23 09:52:00,88.5,68.0,30.04,North,-999,-999.0,-999.0,51,-99.99,,,-99.99,meteohub,2013-08-23 14:52:00,
2013-08-23 09:57:00,87.4,67.1,30.04,North,-999,-999.0,-999.0,51,-99.99,,,-99.99,meteohub,2013-08-23 14:57:00,
2013-08-23 10:02:00,86.7,67.5,30.04,North,-999,-999.0,-999.0,53,-99.99,,,-99.99,meteohub,2013-08-23 15:02:00,
2013-08-23 10:07:00,86.5,68.4,30.04,North,-999,-999.0,-999.0,55,-99.99,,,-99.99,meteohub,2013-08-23 15:07:00,
2013-08-23 10:12:00,86.7,69.1,30.04,North,-999,-999.0,-999.0,56,-99.99,,,-99.99,meteohub,2013-08-23 15:12:00,
2013-08-23 10:17:00,87.3,68.0,30.04,North,-999,-999.0,-999.0,53,-99.99,,,-99.99,meteohub,2013-08-23 15:17:00,
2013-08-23 10:22:00,86.9,67.1,30.04,North,-999,-999.0,-999.0,52,-99.99,,,-99.99,meteohub,2013-08-23 15:22:00,
2013-08-23 10:27:00,87.6,67.3,30.04,North,-999,-999.0,-999.0,51,-99.99,,,-99.99,meteohub,2013-08-23 15:27:00,
2013-08-23 10:32:00,90.0,67.1,30.04,North,-999,-999.0,-999.0,47,-99.99,,,-99.99,meteohub,2013-08-23 15:32:00,
2013-08-23 10:37:00,91.2,66.9,30.04,North,-999,-999.0,-999.0,45,-99.99,,,-99.99,meteohub,2013-08-23 15:37:00,
2013-08-23 10:42:00,90.3,66.0,30.04,North,-999,-999.0,-999.0,45,-99.99,,,-99.99,meteohub,2013-08-23 15:42:00,
2013-08-23 10:47:00,90.0,65.8,30.04,North,-999,-999.0,-999.0,45,-99.99,,,-99.99,meteohub,2013-08-23 15:47:00,
2013-08-23 10:52:00,90.3,68.0,30.04,North,-999,-999.0,-999.0,48,-99.99,,,-99.99,meteohub,2013-08-23 15:52:00,
2013-08-23 10:57:00,90.7,65.8,30.04,North,-999,-999.0,-999.0,44,-99.99,,,-99.99,meteohub,2013-08-23 15:57:00,
2013-08-23 11:02:00,91.0,65.5,30.04,North,-999,-999.0,-999.0,43,-99.99,,,-99.99,meteohub,2013-08-23 16:02:00,
2013-08-23 11:07:00,91.9,66.9,30.04,North,-999,-999.0,-999.0,44,-99.99,,,-99.99,meteohub,2013-08-23 16:07:00,
2013-08-23 11:12:00,93.6,64.9,30.04,North,-999,-999.0,-999.0,39,-99.99,,,-99.99,meteohub,2013-08-23 16:12:00,
2013-08-23 11:17:00,93.0,66.6,30.04,North,-999,-999.0,-999.0,42,-99.99,,,-99.99,meteohub,2013-08-23 16:17:00,
2013-08-23 11:22:00,93.0,64.4,30.04,North,-999,-999.0,-999.0,39,-99.99,,,-99.99,meteohub,2013-08-23 16:22:00,
2013-08-23 11:27:00,93.0,64.4,30.04,North,-999,-999.0,-999.0,39,-99.99,,,-99.99,meteohub,2013-08-23 16:27:00,
2013-08-23 11:32:00,93.6,64.2,30.04,North,-999,-999.0,-999.0,38,-99.99,,,-99.99,meteohub,2013-08-23 16:32:00,
2013-08-23 11:37:00,93.6,62.6,30.03,North,-999,-999.0,-999.0,36,-99.99,,,-99.99,meteohub,2013-08-23 16:37:00,
2013-08-23 11:42:00,93.7,64.2,30.04,North,-999,-999.0,-999.0,38,-99.99,,,-99.99,meteohub,2013-08-23 16:42:00,
2013-08-23 11:47:00,93.9,65.1,30.04,North,-999,-999.0,-999.0,39,-99.99,,,-99.99,meteohub,2013-08-23 16:47:00,
2013-08-23 11:52:00,93.6,62.6,30.03,North,-999,-999.0,-999.0,36,-99.99,,,-99.99,meteohub,2013-08-23 16:52:00,
2013-08-23 11:57:00,93.0,62.1,30.03,North,-999,-999.0,-999.0,36,-99.99,,,-99.99,meteohub,2013-08-23 16:57:00,
2013-08-23 12:02:00,92.7,62.6,30.03,North,-999,-999.0,-999.0,37,-99.99,,,-99.99,meteohub,2013-08-23 17:02:00,
2013-08-23 12:07:00,92.1,64.4,30.03,North,-999,-999.0,-999.0,40,-99.99,,,-99.99,meteohub,2013-08-23 17:07:00,
2013-08-23 12:12:00,92.3,59.0,30.03,North,-999,-999.0,-999.0,33,-99.99,,,-99.99,meteohub,2013-08-23 17:12:00,
2013-08-23 12:17:00,92.8,62.8,30.03,North,-999,-999.0,-999.0,37,-99.99,,,-99.99,meteohub,2013-08-23 17:17:00,
2013-08-23 12:22:00,92.3,60.6,30.03,North,-999,-999.0,-999.0,35,-99.99,,,-99.99,meteohub,2013-08-23 17:22:00,
2013-08-23 12:27:00,92.3,62.2,30.03,North,-999,-999.0,-999.0,37,-99.99,,,-99.99,meteohub,2013-08-23 17:27:00,
2013-08-23 12:32:00,93.2,63.1,30.03,North,-999,-999.0,-999.0,37,-99.99,,,-99.99,meteohub,2013-08-23 17:32:00,
2013-08-23 12:37:00,93.4,59.9,30.02,North,-999,-999.0,-999.0,33,-99.99,,,-99.99,meteohub,2013-08-23 17:37:00,
2013-08-23 12:42:00,93.4,59.9,30.02,North,-999,-999.0,-999.0,33,-99.99,,,-99.99,meteohub,2013-08-23 17:42:00,
2013-08-23 12:47:00,93.2,60.6,30.02,North,-999,-999.0,-999.0,34,-99.99,,,-99.99,meteohub,2013-08-23 17:47:00,
2013-08-23 12:52:00,93.0,58.8,30.02,North,-999,-999.0,-999.0,32,-99.99,,,-99.99,meteohub,2013-08-23 17:52:00,
2013-08-23 12:57:00,93.7,61.2,30.02,North,-999,-999.0,-999.0,34,-99.99,,,-99.99,meteohub,2013-08-23 17:57:00,
2013-08-23 13:02:00,94.3,59.0,30.02,North,-999,-999.0,-999.0,31,-99.99,,,-99.99,meteohub,2013-08-23 18:02:00,
2013-08-23 13:07:00,93.0,60.4,30.01,North,-999,-999.0,-999.0,34,-99.99,,,-99.99,meteohub,2013-08-23 18:07:00,
2013-08-23 13:12:00,93.0,62.1,30.01,North,-999,-999.0,-999.0,36,-99.99,,,-99.99,meteohub,2013-08-23 18:12:00,
2013-08-23 13:17:00,93.7,62.8,30.02,North,-999,-999.0,-999.0,36,-99.99,,,-99.99,meteohub,2013-08-23 18:17:00,
2013-08-23 13:22:00,93.9,59.5,30.01,North,-999,-999.0,-999.0,32,-99.99,,,-99.99,meteohub,2013-08-23 18:22:00,
2013-08-23 13:27:00,93.9,58.6,30.01,North,-999,-999.0,-999.0,31,-99.99,,,-99.99,meteohub,2013-08-23 18:27:00,
2013-08-23 13:32:00,94.5,60.1,30.01,North,-999,-999.0,-999.0,32,-99.99,,,-99.99,meteohub,2013-08-23 18:32:00,
2013-08-23 13:37:00,94.6,57.4,30.01,North,-999,-999.0,-999.0,29,-99.99,,,-99.99,meteohub,2013-08-23 18:37:00,
2013-08-23 13:42:00,94.5,58.3,30.00,North,-999,-999.0,-999.0,30,-99.99,,,-99.99,meteohub,2013-08-23 18:42:00,
2013-08-23 13:47:00,93.4,61.7,30.00,North,-999,-999.0,-999.0,35,-99.99,,,-99.99,meteohub,2013-08-23 18:47:00,
2013-08-23 13:52:00,92.5,60.8,30.00,North,-999,-999.0,-999.0,35,-99.99,,,-99.99,meteohub,2013-08-23 18:52:00,
2013-08-23 13:57:00,92.1,62.1,30.00,North,-999,-999.0,-999.0,37,-99.99,,,-99.99,meteohub,2013-08-23 18:57:00,
2013-08-23 14:02:00,92.5,60.1,30.00,North,-999,-999.0,-999.0,34,-99.99,,,-99.99,meteohub,2013-08-23 19:02:00,
2013-08-23 14:07:00,92.5,60.1,30.00,North,-999,-999.0,-999.0,34,-99.99,,,-99.99,meteohub,2013-08-23 19:07:00,
2013-08-23 14:12:00,93.7,59.4,30.00,North,-999,-999.0,-999.0,32,-99.99,,,-99.99,meteohub,2013-08-23 19:12:00,
2013-08-23 14:17:00,93.2,59.0,30.00,North,-999,-999.0,-999.0,32,-99.99,,,-99.99,meteohub,2013-08-23 19:17:00,
2013-08-23 14:22:00,93.6,61.0,30.00,North,-999,-999.0,-999.0,34,-99.99,,,-99.99,meteohub,2013-08-23 19:22:00,
2013-08-23 14:27:00,93.4,60.8,30.00,North,-999,-999.0,-999.0,34,-99.99,,,-99.99,meteohub,2013-08-23 19:27:00,
2013-08-23 14:32:00,93.6,61.7,29.99,North,-999,-999.0,-999.0,35,-99.99,,,-99.99,meteohub,2013-08-23 19:32:00,
2013-08-23 14:37:00,93.2,59.9,29.99,North,-999,-999.0,-999.0,33,-99.99,,,-99.99,meteohub,2013-08-23 19:37:00,
2013-08-23 14:42:00,93.2,61.5,29.99,North,-999,-999.0,-999.0,35,-99.99,,,-99.99,meteohub,2013-08-23 19:42:00,
2013-08-23 14:47:00,93.0,59.7,29.99,North,-999,-999.0,-999.0,33,-99.99,,,-99.99,meteohub,2013-08-23 19:47:00,
2013-08-23 14:52:00,93.7,59.4,29.99,North,-999,-999.0,-999.0,32,-99.99,,,-99.99,meteohub,2013-08-23 19:52:00,
2013-08-23 14:57:00,94.3,59.9,29.99,North,-999,-999.0,-999.0,32,-99.99,,,-99.99,meteohub,2013-08-23 19:57:00,
2013-08-23 15:02:00,94.1,60.6,29.98,North,-999,-999.0,-999.0,33,-99.99,,,-99.99,meteohub,2013-08-23 20:02:00,
2013-08-23 15:07:00,94.1,60.6,29.98,North,-999,-999.0,-999.0,33,-99.99,,,-99.99,meteohub,2013-08-23 20:07:00,
2013-08-23 15:12:00,94.3,58.1,29.98,North,-999,-999.0,-999.0,30,-99.99,,,-99.99,meteohub,2013-08-23 20:12:00,
2013-08-23 15:17:00,94.3,60.8,29.98,North,-999,-999.0,-999.0,33,-99.99,,,-99.99,meteohub,2013-08-23 20:17:00,
2013-08-23 15:22:00,94.3,57.2,29.98,North,-999,-999.0,-999.0,29,-99.99,,,-99.99,meteohub,2013-08-23 20:22:00,
2013-08-23 15:27:00,94.8,60.4,29.98,North,-999,-999.0,-999.0,32,-99.99,,,-99.99,meteohub,2013-08-23 20:27:00,
2013-08-23 15:32:00,95.0,61.3,29.98,North,-999,-999.0,-999.0,33,-99.99,,,-99.99,meteohub,2013-08-23 20:32:00,
2013-08-23 15:37:00,94.8,60.4,29.98,North,-999,-999.0,-999.0,32,-99.99,,,-99.99,meteohub,2013-08-23 20:37:00,
2013-08-23 15:42:00,94.3,60.8,29.98,North,-999,-999.0,-999.0,33,-99.99,,,-99.99,meteohub,2013-08-23 20:42:00,
2013-08-23 15:47:00,94.8,59.5,29.98,North,-999,-999.0,-999.0,31,-99.99,,,-99.99,meteohub,2013-08-23 20:47:00,
2013-08-23 15:52:00,95.0,54.7,29.97,North,-999,-999.0,-999.0,26,-99.99,,,-99.99,meteohub,2013-08-23 20:52:00,
2013-08-23 15:57:00,94.8,57.6,29.98,North,-999,-999.0,-999.0,29,-99.99,,,-99.99,meteohub,2013-08-23 20:57:00,
2013-08-23 16:02:00,94.6,56.5,29.98,North,-999,-999.0,-999.0,28,-99.99,,,-99.99,meteohub,2013-08-23 21:02:00,
2013-08-23 16:07:00,94.6,56.5,29.98,North,-999,-999.0,-999.0,28,-99.99,,,-99.99,meteohub,2013-08-23 21:07:00,
2013-08-23 16:12:00,94.1,57.0,29.97,North,-999,-999.0,-999.0,29,-99.99,,,-99.99,meteohub,2013-08-23 21:12:00,
2013-08-23 16:17:00,93.9,58.6,29.97,North,-999,-999.0,-999.0,31,-99.99,,,-99.99,meteohub,2013-08-23 21:17:00,
2013-08-23 16:22:00,94.5,58.3,29.97,North,-999,-999.0,-999.0,30,-99.99,,,-99.99,meteohub,2013-08-23 21:22:00,
2013-08-23 16:27:00,94.6,58.5,29.97,North,-999,-999.0,-999.0,30,-99.99,,,-99.99,meteohub,2013-08-23 21:27:00,
2013-08-23 16:32:00,94.5,57.4,29.97,North,-999,-999.0,-999.0,29,-99.99,,,-99.99,meteohub,2013-08-23 21:32:00,
2013-08-23 16:37:00,95.0,57.7,29.97,North,-999,-999.0,-999.0,29,-99.99,,,-99.99,meteohub,2013-08-23 21:37:00,
2013-08-23 16:42:00,95.0,59.5,29.97,North,-999,-999.0,-999.0,31,-99.99,,,-99.99,meteohub,2013-08-23 21:42:00,
2013-08-23 16:47:00,94.8,58.5,29.97,North,-999,-999.0,-999.0,30,-99.99,,,-99.99,meteohub,2013-08-23 21:47:00,
2013-08-23 16:52:00,94.3,59.0,29.97,North,-999,-999.0,-999.0,31,-99.99,,,-99.99,meteohub,2013-08-23 21:52:00,
2013-08-23 16:57:00,94.3,57.2,29.97,North,-999,-999.0,-999.0,29,-99.99,,,-99.99,meteohub,2013-08-23 21:57:00,
2013-08-23 17:02:00,94.6,58.5,29.97,North,-999,-999.0,-999.0,30,-99.99,,,-99.99,meteohub,2013-08-23 22:02:00,
2013-08-23 17:07:00,94.6,58.5,29.96,North,-999,-999.0,-999.0,30,-99.99,,,-99.99,meteohub,2013-08-23 22:07:00,
2013-08-23 17:12:00,94.3,58.1,29.96,North,-999,-999.0,-999.0,30,-99.99,,,-99.99,meteohub,2013-08-23 22:12:00,
2013-08-23 17:17:00,94.3,58.1,29.96,North,-999,-999.0,-999.0,30,-99.99,,,-99.99,meteohub,2013-08-23 22:17:00,
2013-08-23 17:22:00,94.1,59.7,29.97,North,-999,-999.0,-999.0,32,-99.99,,,-99.99,meteohub,2013-08-23 22:22:00,
2013-08-23 17:27:00,94.1,58.8,29.97,North,-999,-999.0,-999.0,31,-99.99,,,-99.99,meteohub,2013-08-23 22:27:00,
2013-08-23 17:32:00,94.1,58.8,29.97,North,-999,-999.0,-999.0,31,-99.99,,,-99.99,meteohub,2013-08-23 22:32:00,
2013-08-23 17:37:00,93.9,59.5,29.96,North,-999,-999.0,-999.0,32,-99.99,,,-99.99,meteohub,2013-08-23 22:37:00,
2013-08-23 17:42:00,93.0,58.8,29.96,North,-999,-999.0,-999.0,32,-99.99,,,-99.99,meteohub,2013-08-23 22:42:00,
2013-08-23 17:47:00,92.3,59.0,29.96,North,-999,-999.0,-999.0,33,-99.99,,,-99.99,meteohub,2013-08-23 22:47:00,
2013-08-23 17:52:00,91.8,61.0,29.96,North,-999,-999.0,-999.0,36,-99.99,,,-99.99,meteohub,2013-08-23 22:52:00,
2013-08-23 17:57:00,91.4,61.5,29.96,North,-999,-999.0,-999.0,37,-99.99,,,-99.99,meteohub,2013-08-23 22:57:00,
2013-08-23 18:02:00,90.5,60.6,29.96,North,-999,-999.0,-999.0,37,-99.99,,,-99.99,meteohub,2013-08-23 23:02:00,
2013-08-23 18:07:00,90.5,60.6,29.97,North,-999,-999.0,-999.0,37,-99.99,,,-99.99,meteohub,2013-08-23 23:07:00,
2013-08-23 18:12:00,88.0,62.6,29.97,North,-999,-999.0,-999.0,43,-99.99,,,-99.99,meteohub,2013-08-23 23:12:00,
2013-08-23 18:17:00,87.1,63.1,29.97,North,-999,-999.0,-999.0,45,-99.99,,,-99.99,meteohub,2013-08-23 23:17:00,
2013-08-23 18:22:00,86.7,63.5,29.96,North,-999,-999.0,-999.0,46,-99.99,,,-99.99,meteohub,2013-08-23 23:22:00,
2013-08-23 18:27:00,86.4,63.1,29.97,North,-999,-999.0,-999.0,46,-99.99,,,-99.99,meteohub,2013-08-23 23:27:00,
2013-08-23 18:32:00,86.0,63.5,29.97,North,-999,-999.0,-999.0,47,-99.99,,,-99.99,meteohub,2013-08-23 23:32:00,
2013-08-23 18:37:00,85.5,63.0,29.97,North,-999,-999.0,-999.0,47,-99.99,,,-99.99,meteohub,2013-08-23 23:37:00,
2013-08-23 18:42:00,85.1,63.9,29.97,North,-999,-999.0,-999.0,49,-99.99,,,-99.99,meteohub,2013-08-23 23:42:00,
2013-08-23 18:47:00,84.7,63.5,29.97,North,-999,-999.0,-999.0,49,-99.99,,,-99.99,meteohub,2013-08-23 23:47:00,
2013-08-23 18:52:00,84.7,64.0,29.97,North,-999,-999.0,-999.0,50,-99.99,,,-99.99,meteohub,2013-08-23 23:52:00,
2013-08-23 18:57:00,85.1,64.4,29.96,North,-999,-999.0,-999.0,50,-99.99,,,-99.99,meteohub,2013-08-23 23:57:00,
2013-08-23 19:02:00,85.3,64.6,29.97,North,-999,-999.0,-999.0,50,-99.99,,,-99.99,meteohub,2013-08-24 00:02:00,
2013-08-23 19:07:00,85.3,64.6,29.97,North,-999,-999.0,-999.0,50,-99.99,,,-99.99,meteohub,2013-08-24 00:07:00,
2013-08-23 19:12:00,86.5,64.6,29.96,North,-999,-999.0,-999.0,48,-99.99,,,-99.99,meteohub,2013-08-24 00:12:00,
2013-08-23 19:17:00,86.2,64.2,29.97,North,-999,-999.0,-999.0,48,-99.99,,,-99.99,meteohub,2013-08-24 00:17:00,
2013-08-23 19:22:00,85.6,64.9,29.97,North,-999,-999.0,-999.0,50,-99.99,,,-99.99,meteohub,2013-08-24 00:22:00,
2013-08-23 19:27:00,85.5,65.3,29.97,North,-999,-999.0,-999.0,51,-99.99,,,-99.99,meteohub,2013-08-24 00:27:00,
2013-08-23 19:32:00,84.6,65.5,29.97,North,-999,-999.0,-999.0,53,-99.99,,,-99.99,meteohub,2013-08-24 00:32:00,
2013-08-23 19:37:00,84.0,66.2,29.97,North,-999,-999.0,-999.0,55,-99.99,,,-99.99,meteohub,2013-08-24 00:37:00,
2013-08-23 19:42:00,83.7,66.4,29.97,North,-999,-999.0,-999.0,56,-99.99,,,-99.99,meteohub,2013-08-24 00:42:00,
2013-08-23 19:47:00,83.3,66.6,29.97,North,-999,-999.0,-999.0,57,-99.99,,,-99.99,meteohub,2013-08-24 00:47:00,
2013-08-23 19:52:00,82.8,66.6,29.97,North,-999,-999.0,-999.0,58,-99.99,,,-99.99,meteohub,2013-08-24 00:52:00,
2013-08-23 19:57:00,82.4,66.6,29.96,North,-999,-999.0,-999.0,59,-99.99,,,-99.99,meteohub,2013-08-24 00:57:00,
2013-08-23 20:02:00,82.0,66.4,29.96,North,-999,-999.0,-999.0,59,-99.99,,,-99.99,meteohub,2013-08-24 01:02:00,
2013-08-23 20:07:00,82.0,66.4,29.97,North,-999,-999.0,-999.0,59,-99.99,,,-99.99,meteohub,2013-08-24 01:07:00,
2013-08-23 20:12:00,81.3,66.6,29.96,North,-999,-999.0,-999.0,61,-99.99,,,-99.99,meteohub,2013-08-24 01:12:00,
2013-08-23 20:17:00,81.0,66.2,29.96,North,-999,-999.0,-999.0,61,-99.99,,,-99.99,meteohub,2013-08-24 01:17:00,
2013-08-23 20:22:00,80.6,66.4,29.96,North,-999,-999.0,-999.0,62,-99.99,,,-99.99,meteohub,2013-08-24 01:22:00,
2013-08-23 20:27:00,80.4,66.2,29.97,North,-999,-999.0,-999.0,62,-99.99,,,-99.99,meteohub,2013-08-24 01:27:00,
2013-08-23 20:32:00,80.1,66.4,29.97,North,-999,-999.0,-999.0,63,-99.99,,,-99.99,meteohub,2013-08-24 01:32:00,
2013-08-23 20:37:00,80.1,66.4,29.97,North,-999,-999.0,-999.0,63,-99.99,,,-99.99,meteohub,2013-08-24 01:37:00,
2013-08-23 20:42:00,79.9,66.2,29.97,North,-999,-999.0,-999.0,63,-99.99,,,-99.99,meteohub,2013-08-24 01:42:00,
2013-08-23 20:47:00,79.7,66.0,29.97,North,-999,-999.0,-999.0,63,-99.99,,,-99.99,meteohub,2013-08-24 01:47:00,
2013-08-23 20:52:00,79.5,65.8,29.97,North,-999,-999.0,-999.0,63,-99.99,,,-99.99,meteohub,2013-08-24 01:52:00,
2013-08-23 20:57:00,79.3,65.7,29.97,North,-999,-999.0,-999.0,63,-99.99,,,-99.99,meteohub,2013-08-24 01:57:00,
2013-08-23 21:02:00,79.2,65.8,29.98,North,-999,-999.0,-999.0,64,-99.99,,,-99.99,meteohub,2013-08-24 02:02:00,
2013-08-23 21:07:00,79.2,65.8,29.98,North,-999,-999.0,-999.0,64,-99.99,,,-99.99,meteohub,2013-08-24 02:07:00,
2013-08-23 21:12:00,78.4,65.3,29.98,North,-999,-999.0,-999.0,64,-99.99,,,-99.99,meteohub,2013-08-24 02:12:00,
2013-08-23 21:17:00,78.6,65.8,29.98,North,-999,-999.0,-999.0,65,-99.99,,,-99.99,meteohub,2013-08-24 02:17:00,
2013-08-23 21:22:00,78.4,65.7,29.99,North,-999,-999.0,-999.0,65,-99.99,,,-99.99,meteohub,2013-08-24 02:22:00,
2013-08-23 21:27:00,78.4,65.7,29.98,North,-999,-999.0,-999.0,65,-99.99,,,-99.99,meteohub,2013-08-24 02:27:00,
2013-08-23 21:32:00,78.3,66.0,29.98,North,-999,-999.0,-999.0,66,-99.99,,,-99.99,meteohub,2013-08-24 02:32:00,
2013-08-23 21:37:00,78.1,65.8,29.98,North,-999,-999.0,-999.0,66,-99.99,,,-99.99,meteohub,2013-08-24 02:37:00,
2013-08-23 21:42:00,78.1,65.8,29.98,North,-999,-999.0,-999.0,66,-99.99,,,-99.99,meteohub,2013-08-24 02:42:00,
2013-08-23 21:47:00,77.7,65.5,29.98,North,-999,-999.0,-999.0,66,-99.99,,,-99.99,meteohub,2013-08-24 02:47:00,
2013-08-23 21:52:00,77.7,65.8,29.98,North,-999,-999.0,-999.0,67,-99.99,,,-99.99,meteohub,2013-08-24 02:52:00,
2013-08-23 21:57:00,77.5,65.7,29.98,North,-999,-999.0,-999.0,67,-99.99,,,-99.99,meteohub,2013-08-24 02:57:00,
2013-08-23 22:02:00,77.5,66.2,29.98,North,-999,-999.0,-999.0,68,-99.99,,,-99.99,meteohub,2013-08-24 03:02:00,
2013-08-23 22:07:00,77.0,65.1,29.99,North,-999,-999.0,-999.0,67,-99.99,,,-99.99,meteohub,2013-08-24 03:07:00,
2013-08-23 22:12:00,77.2,65.8,29.98,North,-999,-999.0,-999.0,68,-99.99,,,-99.99,meteohub,2013-08-24 03:12:00,
2013-08-23 22:17:00,77.0,66.0,29.99,North,-999,-999.0,-999.0,69,-99.99,,,-99.99,meteohub,2013-08-24 03:17:00,
2013-08-23 22:22:00,77.0,66.0,29.99,North,-999,-999.0,-999.0,69,-99.99,,,-99.99,meteohub,2013-08-24 03:22:00,
2013-08-23 22:27:00,76.1,65.7,29.99,North,-999,-999.0,-999.0,70,-99.99,,,-99.99,meteohub,2013-08-24 03:27:00,
2013-08-23 22:32:00,76.6,66.6,29.99,North,-999,-999.0,-999.0,71,-99.99,,,-99.99,meteohub,2013-08-24 03:32:00,
2013-08-23 22:37:00,76.6,66.6,29.99,North,-999,-999.0,-999.0,71,-99.99,,,-99.99,meteohub,2013-08-24 03:37:00,
2013-08-23 22:42:00,76.5,66.4,29.99,North,-999,-999.0,-999.0,71,-99.99,,,-99.99,meteohub,2013-08-24 03:42:00,
2013-08-23 22:47:00,76.1,66.4,29.99,North,-999,-999.0,-999.0,72,-99.99,,,-99.99,meteohub,2013-08-24 03:47:00,
2013-08-23 22:52:00,75.9,66.6,29.99,North,-999,-999.0,-999.0,73,-99.99,,,-99.99,meteohub,2013-08-24 03:52:00,
2013-08-23 22:57:00,75.7,66.9,29.99,North,-999,-999.0,-999.0,74,-99.99,,,-99.99,meteohub,2013-08-24 03:57:00,
2013-08-23 23:02:00,75.7,66.9,29.99,North,-999,-999.0,-999.0,74,-99.99,,,-99.99,meteohub,2013-08-24 04:02:00,
2013-08-23 23:05:00,75.7,66.9,29.99,North,-999,-999.0,-999.0,74,-99.99,,,-99.99,meteohub,2013-08-24 04:05:00,
2013-08-23 23:08:00,75.7,66.9,29.99,North,-999,-999.0,-999.0,74,-99.99,,,-99.99,meteohub,2013-08-24 04:08:00,
2013-08-23 23:12:00,75.6,66.7,29.99,North,-999,-999.0,-999.0,74,-99.99,,,-99.99,meteohub,2013-08-24 04:12:00,
2013-08-23 23:17:00,75.6,67.1,29.99,North,-999,-999.0,-999.0,75,-99.99,,,-99.99,meteohub,2013-08-24 04:17:00,
2013-08-23 23:22:00,75.4,66.9,29.99,North,-999,-999.0,-999.0,75,-99.99,,,-99.99,meteohub,2013-08-24 04:22:00,
2013-08-23 23:27:00,75.4,66.9,30.00,North,-999,-999.0,-999.0,75,-99.99,,,-99.99,meteohub,2013-08-24 04:27:00,
2013-08-23 23:32:00,75.2,67.1,29.99,North,-999,-999.0,-999.0,76,-99.99,,,-99.99,meteohub,2013-08-24 04:32:00,
2013-08-23 23:37:00,75.2,67.1,29.99,North,-999,-999.0,-999.0,76,-99.99,,,-99.99,meteohub,2013-08-24 04:37:00,
2013-08-23 23:42:00,74.7,66.6,29.99,North,-999,-999.0,-999.0,76,-99.99,,,-99.99,meteohub,2013-08-24 04:42:00,
2013-08-23 23:47:00,75.0,67.3,30.00,North,-999,-999.0,-999.0,77,-99.99,,,-99.99,meteohub,2013-08-24 04:47:00,
2013-08-23 23:52:00,74.8,67.5,30.00,North,-999,-999.0,-999.0,78,-99.99,,,-99.99,meteohub,2013-08-24 04:52:00,
2013-08-23 23:57:00,74.7,67.3,29.99,North,-999,-999.0,-999.0,78,-99.99,,,-99.99,meteohub,2013-08-24 04:57:00,